Time;durP1;ratioP1;P1;durP2;ratioP2;P2;SDS_P1;SDS_P2;PMS_P1;PMS_P2;Temp;Humidity;BMP_temperature;BMP_pressure;BME280_temperature;BME280_humidity;BME280_pressure;Samples;Min_cycle;Max_cycle;Signal;HPM_P1;HPM_P2
2022/05/13 00:02:21;;;;;;;4.05;1.52;;;;;;;15.71;63.00;99998.34;12183398;19;20561;-83
2022/05/13 00:06:23;;;;;;;4.00;1.40;;;;;;;15.63;63.07;99995.25;12196310;19;20018;-83
2022/05/13 00:10:24;;;;;;;7.82;1.42;;;;;;;15.62;64.26;99993.59;12203174;19;20029;-83
2022/05/13 00:14:26;;;;;;;5.78;2.03;;;;;;;15.56;63.70;99991.94;12173567;19;20013;-81
2022/05/13 00:18:28;;;;;;;6.65;1.65;;;;;;;15.48;64.51;99999.69;12196751;19;20011;-82
2022/05/13 00:22:29;;;;;;;4.70;1.65;;;;;;;15.45;64.49;100002.19;12206478;19;20019;-84
2022/05/13 00:26:31;;;;;;;5.32;1.40;;;;;;;15.39;65.43;100001.38;12176091;19;20071;-82
2022/05/13 00:30:37;;;;;;;6.85;1.80;;;;;;;15.38;65.83;99990.56;12209381;19;20015;-83
2022/05/13 00:34:38;;;;;;;7.07;1.67;;;;;;;15.40;66.05;99991.09;12201660;19;20722;-83
2022/05/13 00:38:40;;;;;;;6.18;1.70;;;;;;;15.41;65.95;99982.50;12179253;19;20024;-81
2022/05/13 00:42:42;;;;;;;5.60;1.50;;;;;;;15.39;65.84;99992.19;12196964;19;20022;-82
2022/05/13 00:46:44;;;;;;;2.90;1.50;;;;;;;15.29;66.02;99987.50;12212454;19;20006;-82
2022/05/13 00:50:45;;;;;;;5.10;1.70;;;;;;;15.22;66.37;99982.19;12181271;19;20002;-80
2022/05/13 00:54:48;;;;;;;8.43;1.98;;;;;;;15.20;66.65;99980.78;12202305;19;20077;-82
2022/05/13 00:58:55;;;;;;;4.63;1.77;;;;;;;15.18;67.33;99983.84;12203607;19;20035;-83
2022/05/13 01:02:57;;;;;;;4.45;1.75;;;;;;;15.11;67.54;99972.22;12173174;19;20014;-82
2022/05/13 01:07:03;;;;;;;3.78;1.45;;;;;;;15.01;68.21;99973.00;12209159;19;20618;-82
2022/05/13 01:11:11;;;;;;;4.90;1.58;;;;;;;14.95;68.59;99973.28;12184182;19;20011;-81
2022/05/13 01:15:22;;;;;;;5.05;1.75;;;;;;;14.86;70.14;99975.75;12203854;19;20015;-83
2022/05/13 01:19:23;;;;;;;5.93;2.10;;;;;;;14.76;70.01;99975.75;12200010;19;20037;-81
2022/05/13 01:23:30;;;;;;;4.03;1.55;;;;;;;14.65;69.84;99977.66;12186382;19;20031;-81
2022/05/13 01:27:31;;;;;;;4.80;1.80;;;;;;;14.54;70.39;99976.78;12206023;19;20010;-81
2022/05/13 01:31:36;;;;;;;4.65;1.65;;;;;;;14.44;71.01;99973.94;12197441;19;20058;-81
2022/05/13 01:35:41;;;;;;;5.50;1.88;;;;;;;14.38;71.29;99977.81;12180613;19;20014;-82
2022/05/13 01:39:42;;;;;;;5.03;1.70;;;;;;;14.32;71.92;99990.81;12203511;19;20014;-82
2022/05/13 01:43:46;;;;;;;5.35;1.80;;;;;;;14.26;72.31;99988.28;12191536;19;20030;-82
2022/05/13 01:47:48;;;;;;;5.30;1.42;;;;;;;14.20;72.55;99986.59;12185859;19;20372;-81
2022/05/13 01:51:49;;;;;;;5.80;1.63;;;;;;;14.12;73.36;99991.53;12193052;19;20007;-83
2022/05/13 01:55:51;;;;;;;4.10;1.52;;;;;;;14.04;73.53;99994.81;12199431;19;20031;-81
2022/05/13 01:59:54;;;;;;;4.90;2.30;;;;;;;14.00;73.61;99992.84;12177934;19;20053;-82
2022/05/13 02:03:55;;;;;;;6.53;1.80;;;;;;;13.93;74.04;100000.56;12200742;19;20031;-82
2022/05/13 02:07:57;;;;;;;8.80;2.20;;;;;;;13.88;73.93;99993.06;12203475;19;20019;-82
2022/05/13 02:11:59;;;;;;;4.85;1.60;;;;;;;13.83;74.67;99990.25;12172506;19;20078;-81
2022/05/13 02:16:00;;;;;;;3.92;1.80;;;;;;;13.79;74.88;99989.94;12197376;19;20002;-83
2022/05/13 02:20:07;;;;;;;5.88;2.08;;;;;;;13.73;75.22;99993.78;12172724;19;20019;-83
2022/05/13 02:24:10;;;;;;;4.72;1.80;;;;;;;13.67;75.68;99992.91;12201273;19;20704;-82
2022/05/13 02:28:11;;;;;;;4.33;2.07;;;;;;;13.58;76.01;99991.72;12189529;19;20017;-83
2022/05/13 02:32:13;;;;;;;4.13;1.83;;;;;;;13.53;76.40;99983.38;12185831;19;20010;-82
2022/05/13 02:36:15;;;;;;;4.32;1.75;;;;;;;13.48;76.74;99994.44;12193194;19;19999;-82
2022/05/13 02:40:18;;;;;;;5.20;2.00;;;;;;;13.40;77.18;99997.69;12204455;19;20006;-82
2022/05/13 02:44:22;;;;;;;4.82;1.85;;;;;;;13.31;77.31;99993.72;12187809;19;20022;-83
2022/05/13 02:48:24;;;;;;;6.15;1.95;;;;;;;13.22;77.80;100002.47;12213596;19;20011;-82
2022/05/13 02:52:26;;;;;;;5.75;1.85;;;;;;;13.17;78.48;99994.13;12219749;19;20035;-81
2022/05/13 02:56:27;;;;;;;4.85;1.90;;;;;;;13.13;78.60;100008.75;12180578;19;20341;-81
2022/05/13 03:00:29;;;;;;;6.60;2.28;;;;;;;13.08;78.96;100012.28;12198517;19;20003;-80
2022/05/13 03:04:31;;;;;;;6.95;2.08;;;;;;;13.02;79.84;100010.56;12209130;19;20011;-82
2022/05/13 03:08:32;;;;;;;6.00;2.05;;;;;;;12.95;79.68;100012.72;12193888;19;20010;-81
2022/05/13 03:12:35;;;;;;;5.20;2.00;;;;;;;12.89;79.97;100008.25;12209476;19;20011;-82
2022/05/13 03:16:36;;;;;;;4.63;1.98;;;;;;;12.83;80.21;100003.75;12207459;19;20028;-82
2022/05/13 03:20:38;;;;;;;4.45;2.00;;;;;;;12.77;81.16;100009.22;12174649;19;20477;-82
2022/05/13 03:24:40;;;;;;;5.90;2.00;;;;;;;12.74;81.17;100018.03;12210713;19;20038;-82
2022/05/13 03:28:42;;;;;;;5.55;2.20;;;;;;;12.72;81.69;100011.09;12216025;19;20078;-82
2022/05/13 03:32:43;;;;;;;3.27;1.27;;;;;;;12.70;81.83;100014.13;12183347;19;20006;-82
2022/05/13 03:36:45;;;;;;;7.65;2.05;;;;;;;12.67;82.13;100022.09;12194059;19;20003;-83
2022/05/13 03:40:47;;;;;;;6.50;2.33;;;;;;;12.62;82.31;100014.56;12209218;19;20723;-83
2022/05/13 03:44:50;;;;;;;5.93;2.25;;;;;;;12.64;82.83;100017.94;12175439;19;20746;-82
2022/05/13 03:48:51;;;;;;;6.45;2.50;;;;;;;12.63;83.61;100016.25;12210465;19;20531;-81
2022/05/13 03:52:53;;;;;;;7.00;2.42;;;;;;;12.62;83.57;100014.56;12198908;19;20410;-82
2022/05/13 03:56:55;;;;;;;6.25;2.05;;;;;;;12.61;83.65;100023.13;12169995;19;20038;-82
2022/05/13 04:00:57;;;;;;;5.00;2.30;;;;;;;12.59;83.87;100019.78;12206094;19;20030;-81
2022/05/13 04:09:19;;;;;;;6.10;2.33;;;;;;;12.49;83.84;100037.06;12180325;19;20755;-82
2022/05/13 04:17:43;;;;;;;8.30;2.45;;;;;;;12.45;84.39;100031.22;12171183;19;20060;-82
2022/05/13 04:21:46;;;;;;;5.15;2.03;;;;;;;12.45;84.72;100042.28;12203023;19;20002;-82
2022/05/13 04:25:47;;;;;;;;;;;;;;;12.44;85.39;100045.31;12203660;19;20077;-81
2022/05/13 04:29:49;;;;;;;3.38;2.35;;;;;;;12.45;84.87;100046.97;12179462;19;19925;-82
2022/05/13 04:33:52;;;;;;;6.70;2.03;;;;;;;12.47;84.94;100040.09;12204660;19;20074;-82
2022/05/13 04:37:54;;;;;;;6.30;2.35;;;;;;;12.48;85.25;100043.69;12202427;19;20014;-81
2022/05/13 04:46:17;;;;;;;6.55;2.15;;;;;;;12.46;85.84;100046.72;12200265;19;20042;-80
2022/05/13 04:50:23;;;;;;;6.28;2.22;;;;;;;12.47;85.84;100045.63;12187791;19;20007;-80
2022/05/13 04:54:26;;;;;;;7.90;2.65;;;;;;;12.49;86.16;100050.88;12198049;19;20037;-83
2022/05/13 04:58:28;;;;;;;3.60;2.03;;;;;;;12.52;85.77;100050.38;12203039;19;20094;-82
2022/05/13 05:02:30;;;;;;;7.70;2.97;;;;;;;12.56;85.86;100048.78;12203320;19;20499;-84
2022/05/13 05:06:32;;;;;;;4.78;2.40;;;;;;;12.62;85.81;100057.97;12186935;19;20017;-81
2022/05/13 05:10:35;;;;;;;6.40;2.08;;;;;;;12.67;86.18;100071.84;12205427;19;20432;-83
2022/05/13 05:14:36;;;;;;;4.43;2.30;;;;;;;12.72;86.17;100069.16;12189481;19;20101;-83
2022/05/13 05:18:39;;;;;;;4.90;2.22;;;;;;;12.76;86.28;100081.38;12208009;19;20006;-82
2022/05/13 05:22:44;;;;;;;;;;;;;;;12.80;86.81;100078.94;12216991;19;20010;-82
2022/05/13 05:26:45;;;;;;;8.32;2.15;;;;;;;12.88;86.60;100086.75;12187005;19;19910;-83
2022/05/13 05:30:47;;;;;;;8.57;2.45;;;;;;;12.94;87.13;100082.97;12200458;19;20007;-81
2022/05/13 05:34:49;;;;;;;5.22;2.97;;;;;;;13.02;87.38;100088.03;12187895;19;20468;-80
2022/05/13 05:38:50;;;;;;;8.57;3.00;;;;;;;13.16;87.36;100099.53;12177628;19;20034;-80
2022/05/13 05:42:52;;;;;;;6.22;3.38;;;;;;;13.32;86.24;100111.63;12204318;19;20037;-81
2022/05/13 05:46:54;;;;;;;5.82;2.95;;;;;;;13.42;85.21;100122.81;12198688;19;20010;-81
2022/05/13 05:50:58;;;;;;;4.03;2.25;;;;;;;13.65;85.04;100128.03;12189479;19;19998;-81
2022/05/13 05:59:20;;;;;;;4.95;1.92;;;;;;;13.88;82.30;100129.63;12178410;19;20083;-81
2022/05/13 06:03:22;;;;;;;6.88;2.50;;;;;;;14.02;80.14;100137.50;12202889;19;20453;-81
2022/05/13 06:07:24;;;;;;;8.02;3.92;;;;;;;14.17;78.77;100151.47;12195292;19;20014;-81
2022/05/13 06:11:26;;;;;;;8.57;2.57;;;;;;;14.46;77.61;100159.44;12185748;19;20037;-81
2022/05/13 06:15:28;;;;;;;7.93;2.42;;;;;;;14.98;74.44;100170.56;12205069;19;20336;-80
2022/05/13 06:19:30;;;;;;;7.45;2.40;;;;;;;15.31;71.93;100170.44;12200244;19;20006;-80
2022/05/13 06:23:32;;;;;;;8.90;2.72;;;;;;;15.49;70.73;100184.66;12182366;19;20062;-81
2022/05/13 06:27:34;;;;;;;4.23;2.20;;;;;;;15.67;69.87;100179.69;12203297;19;20011;-80
2022/05/13 06:31:37;;;;;;;5.57;1.77;;;;;;;15.81;69.43;100180.88;12207961;19;20006;-80
2022/05/13 06:35:39;;;;;;;18.17;2.90;;;;;;;16.11;68.27;100180.06;12180017;19;20070;-81
2022/05/13 06:39:40;;;;;;;5.68;2.00;;;;;;;16.32;66.17;100180.88;12222371;19;20032;-81
2022/05/13 06:43:42;;;;;;;9.20;2.50;;;;;;;16.41;65.76;100184.78;12199162;19;20014;-81
2022/05/13 06:47:44;;;;;;;5.43;2.03;;;;;;;16.52;64.64;100173.66;12185096;19;20272;-80
2022/05/13 06:51:46;;;;;;;4.78;1.95;;;;;;;16.35;64.34;100180.31;12208687;19;20043;-81
2022/05/13 06:55:47;;;;;;;7.93;3.05;;;;;;;16.09;63.29;100192.56;12197235;19;20023;-82
2022/05/13 06:59:49;;;;;;;6.20;2.22;;;;;;;15.96;62.59;100193.94;12179439;19;20023;-81
2022/05/13 07:03:51;;;;;;;7.03;1.52;;;;;;;15.98;61.43;100188.13;12199535;19;20554;-81
2022/05/13 07:07:52;;;;;;;7.20;1.55;;;;;;;16.12;60.83;100198.44;12198943;19;20011;-81
2022/05/13 07:11:54;;;;;;;6.70;1.75;;;;;;;16.26;60.02;100200.63;12181133;19;20003;-79
2022/05/13 07:15:58;;;;;;;5.85;1.80;;;;;;;16.53;59.98;100200.34;12194493;19;20027;-79
2022/05/13 07:19:59;;;;;;;6.50;1.70;;;;;;;16.93;58.33;100212.56;12218269;19;20075;-82
2022/05/13 07:24:02;;;;;;;4.40;1.75;;;;;;;17.36;56.71;100216.56;12237926;19;20015;-80
2022/05/13 07:28:04;;;;;;;7.03;1.63;;;;;;;17.54;56.57;100217.88;12239963;19;20027;-81
2022/05/13 07:32:06;;;;;;;4.20;1.60;;;;;;;17.51;56.49;100207.31;12216895;19;20011;-81
2022/05/13 07:36:08;;;;;;;6.07;1.67;;;;;;;17.48;57.18;100221.81;12237668;19;20041;-80
2022/05/13 07:44:32;;;;;;;7.72;1.60;;;;;;;17.63;56.85;100204.19;12208677;19;20007;-81
2022/05/13 07:48:34;;;;;;;5.78;1.45;;;;;;;17.81;54.35;100211.91;12253247;19;19999;-80
2022/05/13 07:52:36;;;;;;;13.32;2.53;;;;;;;17.94;53.65;100211.28;12247585;19;20011;-80
2022/05/13 07:56:38;;;;;;;8.02;2.38;;;;;;;18.11;53.93;100204.47;12207875;19;20010;-81
2022/05/13 08:00:42;;;;;;;4.18;1.38;;;;;;;18.20;53.53;100192.41;12225672;19;20019;-80
2022/05/13 08:04:44;;;;;;;4.70;1.45;;;;;;;18.38;52.95;100203.97;12220173;19;22018;-81
2022/05/13 08:08:50;;;;;;;6.93;2.20;;;;;;;18.54;52.63;100202.72;12195136;19;20014;-81
2022/05/13 08:12:52;;;;;;;5.13;1.80;;;;;;;18.52;51.55;100196.56;12222041;19;20076;-81
2022/05/13 08:16:53;;;;;;;11.65;1.70;;;;;;;18.67;51.59;100184.44;12209395;19;20015;-81
2022/05/13 08:20:55;;;;;;;5.60;1.65;;;;;;;18.97;51.18;100188.88;12188975;19;20007;-80
2022/05/13 08:24:57;;;;;;;12.48;1.80;;;;;;;19.16;50.13;100188.13;12214074;19;20393;-82
2022/05/13 08:28:58;;;;;;;8.00;2.65;;;;;;;19.38;48.28;100193.16;12214044;19;20006;-81
2022/05/13 08:33:01;;;;;;;4.28;1.58;;;;;;;19.24;49.05;100193.03;12187829;19;20021;-81
2022/05/13 08:37:03;;;;;;;6.43;1.25;;;;;;;19.31;49.27;100196.31;12205293;19;20018;-81
2022/05/13 08:41:17;;;;;;;6.65;1.60;;;;;;;19.41;48.24;100187.78;12191884;19;20007;-81
2022/05/13 08:45:21;;;;;;;6.45;1.88;;;;;;;19.38;47.21;100195.94;12211150;19;20006;-82
2022/05/13 08:49:32;;;;;;;2.92;1.10;;;;;;;19.65;46.71;100193.38;12218234;19;20354;-81
2022/05/13 08:53:58;;;;;;;14.27;2.25;;;;;;;19.95;45.91;100203.28;12184739;19;20018;-80
2022/05/13 08:58:05;;;;;;;4.68;1.05;;;;;;;20.19;44.10;100213.53;12226435;19;20013;-81
2022/05/13 09:02:20;;;;;;;7.22;2.10;;;;;;;20.15;43.49;100229.28;12196900;19;20011;-79
2022/05/13 09:06:48;;;;;;;5.70;1.35;;;;;;;20.08;43.11;100226.88;12222170;19;20006;-83
2022/05/13 09:11:18;;;;;;;3.97;1.27;;;;;;;19.82;43.04;100220.81;12211533;19;20010;-81
2022/05/13 09:15:23;;;;;;;4.75;1.50;;;;;;;19.76;43.83;100225.66;12190005;19;20011;-82
2022/05/13 09:19:35;;;;;;;6.38;1.25;;;;;;;20.12;43.16;100218.69;12205759;19;20031;-80
2022/05/13 09:23:37;;;;;;;9.07;1.38;;;;;;;20.21;43.39;100222.47;12181715;19;20023;-81
2022/05/13 09:27:43;;;;;;;5.33;1.13;;;;;;;19.99;43.62;100223.94;12205152;19;20092;-80
2022/05/13 09:31:54;;;;;;;5.72;1.45;;;;;;;19.73;43.42;100219.84;12201413;19;20027;-81
2022/05/13 09:36:06;;;;;;;5.80;1.42;;;;;;;19.72;44.51;100229.34;12182847;19;20006;-81
2022/05/13 09:40:24;;;;;;;3.72;1.10;;;;;;;20.15;43.25;100232.06;12199087;19;20014;-81
2022/05/13 09:44:26;;;;;;;4.80;1.13;;;;;;;20.64;42.25;100230.72;12187687;19;20485;-83
2022/05/13 09:48:28;;;;;;;4.40;1.13;;;;;;;20.88;41.62;100219.38;12209476;19;20010;-82
2022/05/13 09:52:34;;;;;;;10.40;1.58;;;;;;;20.93;39.73;100219.28;12204976;19;20010;-83
2022/05/13 09:56:49;;;;;;;3.42;1.20;;;;;;;21.17;39.66;100216.28;12186855;19;20072;-81
2022/05/13 10:00:57;;;;;;;5.15;1.30;;;;;;;21.54;39.49;100220.06;12200088;19;20070;-82
2022/05/13 10:05:11;;;;;;;3.17;1.10;;;;;;;21.49;38.23;100214.56;12205330;19;20010;-82
2022/05/13 10:13:59;;;;;;;7.55;1.30;;;;;;;20.71;39.25;100208.78;12205826;19;20010;-80
2022/05/13 10:18:12;;;;;;;6.38;1.20;;;;;;;20.78;38.70;100208.38;12175777;19;20110;-78
2022/05/13 10:22:19;;;;;;;3.55;1.10;;;;;;;20.93;37.61;100208.91;12207084;19;20011;-82
2022/05/13 10:26:31;;;;;;;7.35;1.13;;;;;;;20.92;38.67;100196.03;12177013;19;20014;-81
2022/05/13 10:30:58;;;;;;;5.10;0.88;;;;;;;20.97;37.15;100211.06;12204983;19;20017;-83
2022/05/13 10:35:07;;;;;;;5.25;1.05;;;;;;;21.04;35.38;100197.50;12199389;19;20015;-81
2022/05/13 10:39:15;;;;;;;5.43;1.15;;;;;;;20.74;36.16;100196.13;12204379;19;20492;-81
2022/05/13 10:43:33;;;;;;;2.58;0.90;;;;;;;21.08;36.10;100199.38;12202141;19;20031;-82
2022/05/13 10:47:54;;;;;;;6.35;1.10;;;;;;;21.49;34.24;100200.53;12174860;19;20011;-80
2022/05/13 10:52:08;;;;;;;4.20;0.85;;;;;;;21.35;35.71;100181.72;12198571;19;20073;-80
2022/05/13 10:56:21;;;;;;;7.57;1.10;;;;;;;21.55;34.42;100177.69;12177041;19;20459;-81
2022/05/13 11:00:31;;;;;;;4.78;0.75;;;;;;;21.67;34.79;100188.34;12209108;19;20014;-81
2022/05/13 11:04:55;;;;;;;4.22;1.02;;;;;;;22.02;33.68;100181.09;12212785;19;20007;-81
2022/05/13 11:09:21;;;;;;;2.53;0.90;;;;;;;21.78;33.95;100189.78;12200112;19;20011;-82
2022/05/13 11:13:52;;;;;;;6.55;1.13;;;;;;;21.93;33.46;100197.00;12205918;19;20034;-82
2022/05/13 11:18:06;;;;;;;6.20;0.90;;;;;;;22.10;33.78;100176.69;12188540;19;20392;-82
2022/05/13 11:22:35;;;;;;;6.55;0.90;;;;;;;22.20;32.79;100181.25;12213392;19;20054;-81
2022/05/13 11:26:45;;;;;;;2.72;0.60;;;;;;;22.45;33.43;100176.97;12186031;19;20096;-82
2022/05/13 11:31:00;;;;;;;3.92;1.00;;;;;;;22.50;32.68;100174.03;12215552;19;20027;-82
2022/05/13 11:35:38;;;;;;;5.40;1.70;;;;;;;22.28;31.57;100175.72;12194756;19;20006;-81
2022/05/13 11:39:46;;;;;;;8.45;1.52;;;;;;;22.65;32.66;100170.81;12214996;19;20072;-82
2022/05/13 11:43:58;;;;;;;4.00;1.25;;;;;;;23.21;31.67;100174.06;12206607;19;20006;-81
2022/05/13 11:48:21;;;;;;;3.05;0.95;;;;;;;23.41;30.64;100181.06;12194332;19;20112;-81
2022/05/13 11:52:44;;;;;;;2.05;1.00;;;;;;;24.16;30.64;100175.38;12207046;19;20074;-83
2022/05/13 11:56:46;;;;;;;4.00;0.80;;;;;;;24.92;30.69;100164.28;12180496;19;20006;-83
2022/05/13 12:00:48;;;;;;;1.52;0.73;;;;;;;24.96;29.31;100168.09;12203239;19;20437;-83
2022/05/13 12:05:16;;;;;;;4.22;0.73;;;;;;;24.88;29.29;100154.84;12210330;19;20007;-84
2022/05/13 12:09:35;;;;;;;2.65;1.02;;;;;;;25.25;29.56;100146.75;12190578;19;20464;-82
2022/05/13 12:13:40;;;;;;;4.78;1.10;;;;;;;25.44;28.13;100161.25;12216527;19;20464;-84
2022/05/13 12:17:53;;;;;;;4.95;1.33;;;;;;;25.67;28.22;100146.78;12191941;19;20023;-83
2022/05/13 12:22:07;;;;;;;4.32;1.10;;;;;;;26.44;26.63;100147.31;12213006;19;20495;-84
2022/05/13 12:26:11;;;;;;;6.32;1.92;;;;;;;26.64;26.84;100148.47;12186920;19;20345;-84
2022/05/13 12:30:30;;;;;;;4.22;0.90;;;;;;;26.80;26.73;100148.59;12216732;19;20020;-84
2022/05/13 12:39:10;;;;;;;3.28;1.30;;;;;;;27.37;25.80;100161.06;12188701;19;20081;-83
2022/05/13 12:43:15;;;;;;;4.20;1.23;;;;;;;27.66;25.61;100157.09;12216954;19;20006;-83
2022/05/13 12:47:22;;;;;;;7.43;1.00;;;;;;;28.43;25.34;100151.34;12178633;19;20739;-83
2022/05/13 12:51:34;;;;;;;3.20;1.00;;;;;;;29.14;23.69;100140.28;12216853;19;20453;-83
2022/05/13 12:55:37;;;;;;;;;;;;;;;28.40;23.89;100144.34;12209950;19;20089;-81
2022/05/13 12:59:42;;;;;;;7.43;0.98;;;;;;;28.56;24.10;100144.44;12183059;19;19966;-80
2022/05/13 13:03:48;;;;;;;3.88;0.95;;;;;;;28.63;24.00;100138.94;12187597;19;20014;-82
2022/05/13 13:07:55;;;;;;;4.72;1.15;;;;;;;29.33;23.70;100136.66;12194214;19;20018;-82
2022/05/13 13:12:06;;;;;;;3.45;1.20;;;;;;;29.36;23.25;100142.47;12175650;19;20824;-79
2022/05/13 13:16:41;;;;;;;3.57;1.10;;;;;;;29.98;23.08;100128.44;12191572;19;20011;-81
2022/05/13 13:20:55;;;;;;;3.17;1.60;;;;;;;30.86;22.75;100122.91;12171941;19;20070;-80
2022/05/13 13:24:57;;;;;;;3.90;1.10;;;;;;;31.32;20.40;100134.25;12202958;19;20011;-80
2022/05/13 13:29:00;;;;;;;3.72;1.00;;;;;;;30.94;20.96;100135.22;12198938;19;20504;-80
2022/05/13 13:33:06;;;;;;;2.45;1.38;;;;;;;30.99;20.65;100120.66;12177995;19;20078;-80
2022/05/13 13:37:13;;;;;;;2.97;1.00;;;;;;;31.57;21.08;100119.56;12196137;19;20010;-81
2022/05/13 13:41:36;;;;;;;4.05;1.20;;;;;;;32.29;20.45;100124.19;12177841;19;20011;-81
2022/05/13 13:45:42;;;;;;;2.53;0.93;;;;;;;31.75;20.65;100114.94;12196198;19;20010;-81
2022/05/13 13:49:48;;;;;;;2.83;1.17;;;;;;;31.96;20.41;100119.31;12202394;19;20050;-82
2022/05/13 13:54:00;;;;;;;4.45;1.10;;;;;;;32.00;20.23;100117.31;12176413;19;20006;-81
2022/05/13 13:58:24;;;;;;;5.65;1.60;;;;;;;32.12;19.97;100111.38;12203383;19;20010;-81
2022/05/13 14:02:35;;;;;;;2.97;1.08;;;;;;;32.54;19.11;100109.41;12167549;19;20038;-83
2022/05/13 14:06:40;;;;;;;3.08;1.02;;;;;;;32.48;19.60;100114.66;12201963;19;20014;-81
2022/05/13 14:11:01;;;;;;;4.70;1.08;;;;;;;32.13;20.13;100110.16;12190398;19;20079;-81
2022/05/13 14:15:06;;;;;;;;;;;;;;;32.01;20.46;100110.44;12181919;19;20023;-81
2022/05/13 14:19:11;;;;;;;3.72;0.80;;;;;;;31.75;20.13;100103.56;12198920;19;19918;-81
2022/05/13 14:23:15;;;;;;;5.35;1.05;;;;;;;31.40;20.04;100108.75;12180988;19;20010;-81
2022/05/13 14:27:25;;;;;;;3.63;0.98;;;;;;;30.52;20.94;100098.25;12194987;19;20015;-81
2022/05/13 14:31:36;;;;;;;3.05;0.93;;;;;;;29.16;21.79;100106.69;12196262;19;20015;-78
2022/05/13 14:35:38;;;;;;;3.42;0.98;;;;;;;29.19;22.31;100100.28;12180600;19;20472;-80
2022/05/13 14:39:48;;;;;;;;;;;;;;;29.01;22.15;100094.94;12205416;19;20368;-80
2022/05/13 14:43:51;;;;;;;2.75;0.80;;;;;;;28.68;22.61;100089.66;12216959;19;19911;-80
2022/05/13 14:48:10;;;;;;;4.00;0.60;;;;;;;28.47;23.05;100084.25;12193237;19;20020;-81
2022/05/13 14:52:24;;;;;;;3.63;1.08;;;;;;;27.84;23.13;100087.75;12211103;19;20102;-80
2022/05/13 14:56:44;;;;;;;3.75;1.55;;;;;;;27.13;24.04;100089.13;12194042;19;20006;-80
2022/05/13 15:00:47;;;;;;;2.30;0.93;;;;;;;26.70;24.64;100096.16;12215507;19;20034;-80
2022/05/13 15:04:55;;;;;;;4.68;0.80;;;;;;;26.49;24.58;100092.59;12218384;19;20023;-80
2022/05/13 15:09:21;;;;;;;3.85;1.00;;;;;;;26.31;25.01;100084.28;12187867;19;20086;-80
2022/05/13 15:13:26;;;;;;;2.17;0.70;;;;;;;25.79;25.51;100087.63;12215999;19;20027;-80
2022/05/13 15:17:28;;;;;;;2.20;0.68;;;;;;;25.54;26.25;100097.94;12183191;19;20014;-81
2022/05/13 15:21:31;;;;;;;4.85;0.70;;;;;;;25.05;26.48;100089.13;12216175;19;20018;-81
2022/05/13 15:25:33;;;;;;;;;;;;;;;24.59;27.12;100101.25;12212830;19;20067;-81
2022/05/13 15:29:37;;;;;;;6.43;0.68;;;;;;;24.55;27.03;100084.22;12176942;19;19911;-79
2022/05/13 15:33:39;;;;;;;3.25;0.80;;;;;;;24.61;27.38;100096.13;12195771;19;20010;-80
2022/05/13 15:37:41;;;;;;;3.77;0.87;;;;;;;24.71;26.85;100087.28;12212562;19;20011;-81
2022/05/13 15:41:43;;;;;;;3.20;1.10;;;;;;;24.56;27.81;100089.50;12178479;19;20011;-80
2022/05/13 15:45:51;;;;;;;2.97;0.82;;;;;;;24.50;27.42;100085.22;12200359;19;20645;-80
2022/05/13 15:54:14;;;;;;;7.05;0.90;;;;;;;24.19;28.11;100098.69;12187331;19;20006;-81
2022/05/13 15:58:24;;;;;;;6.67;0.70;;;;;;;23.95;28.23;100102.06;12205275;19;20820;-81
2022/05/13 16:02:26;;;;;;;2.72;0.80;;;;;;;23.71;28.43;100094.09;12182265;19;20606;-81
2022/05/13 16:06:29;;;;;;;3.45;0.90;;;;;;;23.70;28.88;100089.63;12208517;19;20007;-80
2022/05/13 16:10:32;;;;;;;3.30;0.80;;;;;;;23.58;28.13;100095.88;12204985;19;20011;-79
2022/05/13 16:14:33;;;;;;;3.63;0.90;;;;;;;23.48;28.19;100090.59;12178625;19;20101;-80
2022/05/13 16:18:39;;;;;;;4.37;0.80;;;;;;;23.49;28.41;100095.06;12200342;19;20114;-80
2022/05/13 16:27:23;;;;;;;2.33;0.60;;;;;;;23.31;28.47;100088.56;12219066;19;52179;-80
2022/05/13 16:31:28;;;;;;;4.85;1.00;;;;;;;23.13;28.90;100093.34;12207696;19;20013;-80
2022/05/13 16:35:30;;;;;;;5.07;1.00;;;;;;;23.04;28.67;100084.88;12179687;19;20102;-80
2022/05/13 16:39:32;;;;;;;3.13;0.70;;;;;;;23.02;28.84;100084.38;12200161;19;20067;-80
2022/05/13 16:43:35;;;;;;;3.03;1.00;;;;;;;23.03;28.74;100080.44;12201404;19;20392;-80
2022/05/13 16:47:37;;;;;;;4.25;0.68;;;;;;;22.94;28.87;100082.34;12183146;19;20010;-80
2022/05/13 16:51:43;;;;;;;7.30;1.02;;;;;;;22.87;29.47;100077.19;12203876;19;20011;-81
2022/05/13 16:55:48;;;;;;;5.93;0.75;;;;;;;22.75;29.32;100069.41;12190497;19;21600;-80
2022/05/13 16:59:49;;;;;;;2.92;0.60;;;;;;;22.71;29.32;100074.00;12179919;19;20006;-80
2022/05/13 17:04:15;;;;;;;2.97;1.00;;;;;;;22.78;29.34;100073.53;12196914;19;20011;-80
2022/05/13 17:17:39;;;;;;;4.13;0.80;;;;;;;22.44;29.98;100072.25;12176716;19;20028;-80
2022/05/13 17:21:44;;;;;;;2.85;0.90;;;;;;;22.32;29.96;100076.81;12202690;19;20011;-80
2022/05/13 17:25:46;;;;;;;4.30;0.90;;;;;;;22.20;30.00;100078.22;12199694;19;20532;-80
2022/05/13 17:29:48;;;;;;;2.95;0.98;;;;;;;22.11;30.57;100077.31;12178117;19;20006;-81
2022/05/13 17:33:49;;;;;;;4.10;0.80;;;;;;;22.11;30.44;100077.31;12193684;19;20033;-81
2022/05/13 17:37:55;;;;;;;3.03;0.60;;;;;;;22.08;30.73;100072.34;12208947;19;20318;-80
2022/05/13 17:41:58;;;;;;;3.10;0.88;;;;;;;21.94;30.73;100077.19;12175272;19;20743;-81
2022/05/13 17:46:01;;;;;;;3.53;0.68;;;;;;;21.75;31.21;100069.81;12196652;19;20015;-81
2022/05/13 17:50:03;;;;;;;4.38;0.73;;;;;;;21.67;31.39;100070.56;12185870;19;20535;-81
2022/05/13 17:54:08;;;;;;;3.17;0.60;;;;;;;21.56;31.61;100075.56;12200942;19;20010;-81
2022/05/13 17:58:10;;;;;;;2.40;0.60;;;;;;;21.51;31.48;100080.50;12205215;19;20002;-81
2022/05/13 18:02:14;;;;;;;3.10;0.70;;;;;;;21.35;31.88;100077.16;12180049;19;20477;-81
2022/05/13 18:06:20;;;;;;;4.30;0.90;;;;;;;21.25;32.24;100083.03;12206297;19;20021;-81
2022/05/13 18:10:22;;;;;;;2.95;0.90;;;;;;;21.12;32.35;100090.31;12206149;19;20017;-80
2022/05/13 18:14:24;;;;;;;4.20;1.15;;;;;;;20.99;33.18;100085.53;12175118;19;20011;-81
2022/05/13 18:18:31;;;;;;;2.00;0.90;;;;;;;20.82;34.34;100088.97;12197580;19;20041;-81
2022/05/13 18:22:34;;;;;;;2.50;0.80;;;;;;;20.57;35.98;100093.13;12206942;19;20010;-81
2022/05/13 18:26:38;;;;;;;4.05;1.20;;;;;;;20.23;37.02;100095.13;12180979;19;20392;-81
2022/05/13 18:30:43;;;;;;;1.60;0.63;;;;;;;19.93;38.33;100098.41;12199597;19;20110;-81
2022/05/13 18:34:45;;;;;;;3.33;1.27;;;;;;;19.63;39.32;100092.19;12198671;19;20027;-80
2022/05/13 18:38:47;;;;;;;4.43;0.97;;;;;;;19.38;40.25;100101.78;12184188;19;20003;-81
2022/05/13 18:47:09;;;;;;;3.05;0.90;;;;;;;18.87;41.44;100100.50;12177469;19;20011;-81
2022/05/13 18:51:16;;;;;;;3.17;0.93;;;;;;;18.60;42.57;100100.22;12200780;19;20087;-80
2022/05/13 18:55:17;;;;;;;2.42;0.88;;;;;;;18.34;43.04;100097.69;12192773;19;20070;-80
2022/05/13 18:59:19;;;;;;;5.63;1.00;;;;;;;18.10;43.51;100103.22;12177866;19;20476;-81
2022/05/13 19:03:25;;;;;;;5.28;2.35;;;;;;;17.86;44.05;100105.94;12196745;19;20369;-81
2022/05/13 19:07:28;;;;;;;3.58;1.38;;;;;;;17.66;44.37;100109.69;12194583;19;20003;-81
2022/05/13 19:11:30;;;;;;;3.13;1.00;;;;;;;17.47;44.89;100112.34;12183852;19;20006;-82
2022/05/13 19:15:32;;;;;;;2.27;0.83;;;;;;;17.29;45.49;100111.03;12205088;19;20015;-81
2022/05/13 19:19:36;;;;;;;2.25;1.23;;;;;;;17.14;45.57;100113.91;12210891;19;20468;-81
2022/05/13 19:23:38;;;;;;;3.30;0.65;;;;;;;16.99;46.32;100123.19;12195562;19;20122;-81
2022/05/13 19:27:40;;;;;;;3.13;0.82;;;;;;;16.85;46.61;100131.28;12211779;19;20501;-82
2022/05/13 19:31:42;;;;;;;5.30;1.77;;;;;;;16.73;47.10;100130.75;12205252;19;20015;-81
2022/05/13 19:35:44;;;;;;;2.50;0.82;;;;;;;16.61;46.91;100133.84;12190149;19;20094;-81
2022/05/13 19:39:45;;;;;;;3.17;1.87;;;;;;;16.49;47.38;100138.03;12211839;19;20010;-81
2022/05/13 19:43:47;;;;;;;4.55;1.90;;;;;;;16.40;47.38;100137.78;12202344;19;20066;-81
2022/05/13 19:47:51;;;;;;;4.80;2.50;;;;;;;16.30;47.84;100143.34;12188609;19;20074;-81